Time;durP1;ratioP1;P1;durP2;ratioP2;P2;SDS_P1;SDS_P2;PMS_P1;PMS_P2;Temp;Humidity;BMP_temperature;BMP_pressure;BME280_temperature;BME280_humidity;BME280_pressure;Samples;Min_cycle;Max_cycle;Signal;HPM_P1;HPM_P2
2022/09/19 00:00:31;;;;;;;9.00;4.00;;;;;;;10.45;67.90;98099.45;238091;1193;138683;-55
2022/09/19 00:05:55;;;;;;;6.20;3.70;;;;;;;10.42;68.29;98093.92;238226;1193;139783;-57
2022/09/19 00:11:03;;;;;;;5.10;3.50;;;;;;;10.42;68.54;98090.27;237782;1193;141665;-57
2022/09/19 00:16:06;;;;;;;5.40;3.30;;;;;;;10.41;68.51;98085.73;237658;1193;139030;-55
2022/09/19 00:21:09;;;;;;;5.20;2.90;;;;;;;10.45;68.31;98084.02;238015;1193;139744;-54
2022/09/19 00:26:17;;;;;;;6.90;2.80;;;;;;;10.50;68.49;98081.27;238256;1193;139167;-54
2022/09/19 00:31:21;;;;;;;5.80;3.00;;;;;;;10.57;68.76;98077.36;238277;1193;139473;-55
2022/09/19 00:36:24;;;;;;;4.70;2.70;;;;;;;10.62;68.83;98073.27;238335;1193;139126;-56
2022/09/19 00:41:28;;;;;;;4.90;3.20;;;;;;;10.64;68.60;98069.14;237740;1193;138336;-56
2022/09/19 00:46:34;;;;;;;3.90;2.50;;;;;;;10.66;68.73;98067.48;237732;1193;139714;-57
2022/09/19 00:51:45;;;;;;;7.80;2.80;;;;;;;10.64;68.81;98065.59;237940;1193;142193;-57
2022/09/19 00:56:52;;;;;;;5.70;2.70;;;;;;;10.65;68.81;98068.25;238260;1193;139328;-55
2022/09/19 01:01:56;;;;;;;4.80;2.80;;;;;;;10.67;68.80;98063.66;237679;1193;139688;-55
2022/09/19 01:07:33;;;;;;;5.50;3.20;;;;;;;10.70;69.03;98060.59;237782;1193;138812;-55
2022/09/19 01:12:58;;;;;;;;;;;;;;;10.72;68.83;98052.82;237956;1193;138911;-55
2022/09/19 01:18:03;;;;;;;4.00;2.40;;;;;;;10.73;69.38;98059.31;237504;1194;124473;-55
2022/09/19 01:23:36;;;;;;;5.60;2.10;;;;;;;10.74;69.63;98068.62;237454;1193;138741;-57
2022/09/19 01:28:47;;;;;;;4.40;2.00;;;;;;;10.73;69.39;98067.12;237806;1193;139320;-57
2022/09/19 01:34:09;;;;;;;4.90;2.90;;;;;;;10.75;69.41;98071.19;238144;1193;140553;-57
2022/09/19 01:39:20;;;;;;;6.00;2.70;;;;;;;10.79;69.40;98070.73;237888;1193;139700;-56
2022/09/19 01:44:26;;;;;;;5.50;3.00;;;;;;;10.81;69.70;98072.32;237414;1195;139779;-55
2022/09/19 01:50:06;;;;;;;5.80;3.10;;;;;;;10.80;69.59;98072.77;237439;1193;138433;-56
2022/09/19 01:55:26;;;;;;;3.90;3.00;;;;;;;10.75;69.55;98070.80;237718;1194;139412;-56
2022/09/19 02:00:39;;;;;;;4.40;3.30;;;;;;;10.75;69.44;98071.74;237779;1193;139232;-57
2022/09/19 02:06:00;;;;;;;5.00;3.10;;;;;;;10.72;69.57;98073.74;237314;1194;138749;-57
2022/09/19 02:11:11;;;;;;;4.90;3.00;;;;;;;10.75;69.77;98079.16;237669;1193;139775;-57
2022/09/19 02:16:29;;;;;;;7.30;3.10;;;;;;;10.78;69.75;98084.64;237888;1193;139858;-57
2022/09/19 02:21:40;;;;;;;4.60;3.20;;;;;;;10.79;69.56;98088.40;237958;1193;139270;-56
2022/09/19 02:26:48;;;;;;;5.10;3.00;;;;;;;10.80;69.97;98093.52;237420;1193;140698;-57
2022/09/19 02:31:53;;;;;;;6.30;3.20;;;;;;;10.80;69.99;98097.60;237584;1193;138841;-56
2022/09/19 02:37:04;;;;;;;4.70;3.10;;;;;;;10.77;69.50;98092.32;238209;1193;138472;-57
2022/09/19 02:42:36;;;;;;;3.20;2.50;;;;;;;10.76;69.50;98102.13;238157;1193;139489;-57
2022/09/19 02:47:55;;;;;;;4.80;3.30;;;;;;;10.79;69.87;98108.81;237894;1192;139509;-56
2022/09/19 02:53:03;;;;;;;4.30;3.60;;;;;;;10.80;69.54;98105.89;237922;1193;139654;-55
2022/09/19 02:58:08;;;;;;;6.30;4.30;;;;;;;10.79;69.67;98110.83;237733;1193;138605;-56
2022/09/19 03:08:41;;;;;;;5.50;4.20;;;;;;;10.68;69.32;98118.55;237741;1193;138615;-56
2022/09/19 03:13:45;;;;;;;3.10;2.80;;;;;;;10.61;69.32;98120.66;237751;1193;139755;-58
2022/09/19 03:18:56;;;;;;;4.10;2.70;;;;;;;10.58;69.06;98124.13;237669;1193;139378;-56
2022/09/19 03:23:59;;;;;;;4.00;3.00;;;;;;;10.54;69.35;98132.40;237642;1193;139580;-55
2022/09/19 03:29:06;;;;;;;5.80;3.20;;;;;;;10.55;69.07;98131.23;237896;1193;138376;-57
2022/09/19 03:34:27;;;;;;;6.40;3.40;;;;;;;10.52;69.14;98138.48;237866;1193;209993;-57
2022/09/19 03:39:29;;;;;;;4.00;3.30;;;;;;;10.45;68.71;98147.27;238009;1193;139420;-58
2022/09/19 03:44:33;;;;;;;4.40;3.70;;;;;;;10.39;69.06;98153.61;238117;1193;138362;-57
2022/09/19 03:49:36;;;;;;;4.20;3.70;;;;;;;10.32;68.86;98154.83;238042;1193;139038;-57
2022/09/19 03:54:39;;;;;;;5.70;3.50;;;;;;;10.32;69.20;98160.87;237946;1193;139572;-56
2022/09/19 03:59:42;;;;;;;4.90;3.90;;;;;;;10.37;69.37;98159.92;237422;1193;138755;-57
2022/09/19 04:04:46;;;;;;;5.90;3.40;;;;;;;10.37;69.24;98159.27;237596;1193;141556;-56
2022/09/19 04:09:49;;;;;;;5.20;4.70;;;;;;;10.37;69.04;98158.20;238040;1193;138884;-56
2022/09/19 04:14:53;;;;;;;6.10;5.20;;;;;;;10.33;69.16;98154.92;237722;1193;138352;-56
2022/09/19 04:19:56;;;;;;;6.60;5.70;;;;;;;10.29;69.26;98155.77;237530;1194;139354;-55
2022/09/19 04:25:12;;;;;;;8.70;5.60;;;;;;;10.25;69.20;98151.46;237864;1193;139609;-55
2022/09/19 04:30:39;;;;;;;7.20;4.90;;;;;;;10.19;69.05;98159.12;237839;1193;139673;-55
2022/09/19 04:35:43;;;;;;;8.30;5.70;;;;;;;10.24;69.66;98167.84;237653;1193;139226;-56
2022/09/19 04:40:48;;;;;;;6.80;5.40;;;;;;;10.29;69.83;98170.48;237429;1194;138985;-56
2022/09/19 04:45:52;;;;;;;6.70;5.00;;;;;;;10.32;69.75;98178.20;237709;1193;139420;-56
2022/09/19 04:51:07;;;;;;;6.60;5.40;;;;;;;10.32;69.61;98180.19;238099;1193;138531;-56
2022/09/19 04:56:11;;;;;;;7.20;5.50;;;;;;;10.33;69.47;98186.66;237322;1193;139039;-53
2022/09/19 05:01:16;;;;;;;8.70;5.00;;;;;;;10.32;69.67;98192.27;236979;1193;139329;-57
2022/09/19 05:06:20;;;;;;;9.00;4.90;;;;;;;10.28;69.61;98193.80;236933;1194;141449;-53
2022/09/19 05:11:23;;;;;;;7.20;5.90;;;;;;;10.30;69.70;98193.83;238435;1191;139653;-55
2022/09/19 05:16:26;;;;;;;9.20;7.30;;;;;;;10.34;69.67;98204.65;238652;1191;138717;-56
2022/09/19 05:21:34;;;;;;;9.10;7.90;;;;;;;10.39;70.10;98211.01;238726;1191;138718;-56
2022/09/19 05:26:40;;;;;;;11.50;8.50;;;;;;;10.41;69.63;98215.10;238261;1192;139462;-56
2022/09/19 05:31:48;;;;;;;15.20;8.90;;;;;;;10.42;69.79;98221.45;238038;1192;138829;-58
2022/09/19 05:36:59;;;;;;;10.10;7.30;;;;;;;10.40;69.47;98230.66;237680;1191;138433;-56
2022/09/19 05:42:30;;;;;;;9.70;5.90;;;;;;;10.42;69.53;98233.83;237660;1191;140571;-56
2022/09/19 05:47:33;;;;;;;10.30;7.00;;;;;;;10.45;69.69;98243.77;238087;1190;140514;-57
2022/09/19 05:58:01;;;;;;;10.60;7.10;;;;;;;10.51;69.82;98249.91;238125;1192;138507;-56
2022/09/19 06:03:09;;;;;;;12.60;8.60;;;;;;;10.49;69.48;98256.42;237780;1192;138704;-55
2022/09/19 06:08:12;;;;;;;12.60;9.30;;;;;;;10.47;69.46;98259.22;237563;1191;138785;-55
2022/09/19 06:13:23;;;;;;;12.40;8.80;;;;;;;10.47;69.68;98267.41;237588;1191;139479;-55
2022/09/19 06:18:29;;;;;;;11.30;8.40;;;;;;;10.51;69.28;98260.15;238570;1191;141731;-56
2022/09/19 06:23:38;;;;;;;15.60;10.60;;;;;;;10.62;69.81;98269.59;238567;1191;141462;-56
2022/09/19 06:28:42;;;;;;;12.90;10.40;;;;;;;10.66;69.67;98270.22;238138;1191;139858;-56
2022/09/19 06:33:46;;;;;;;13.40;10.70;;;;;;;10.70;69.33;98266.91;237845;1192;139465;-56
2022/09/19 06:38:53;;;;;;;15.00;11.00;;;;;;;10.73;69.38;98276.08;238007;1192;139508;-54
2022/09/19 06:44:08;;;;;;;14.40;10.80;;;;;;;10.73;69.49;98279.80;238120;1192;139461;-56
2022/09/19 06:49:31;;;;;;;16.30;10.70;;;;;;;10.69;69.01;98286.83;238478;1191;139429;-55
2022/09/19 06:55:00;;;;;;;19.80;11.70;;;;;;;10.70;69.24;98292.81;238431;1191;139689;-57
2022/09/19 07:00:04;;;;;;;16.80;12.20;;;;;;;10.77;69.47;98299.38;238263;1192;139985;-56
2022/09/19 07:05:09;;;;;;;17.80;12.60;;;;;;;10.82;69.13;98306.08;237914;1192;139156;-57
2022/09/19 07:10:26;;;;;;;23.60;16.20;;;;;;;10.85;68.90;98306.94;238292;1192;139335;-54
2022/09/19 07:15:31;;;;;;;17.00;12.60;;;;;;;10.91;69.26;98314.64;238361;1191;139884;-55
2022/09/19 07:20:36;;;;;;;17.00;11.70;;;;;;;10.92;68.92;98321.48;238201;1192;139031;-54
2022/09/19 07:25:48;;;;;;;15.50;9.70;;;;;;;10.90;68.97;98318.64;238344;1192;139197;-56
2022/09/19 07:30:52;;;;;;;18.70;9.20;;;;;;;10.95;68.80;98323.20;238371;1190;139817;-55
2022/09/19 07:35:58;;;;;;;14.20;9.30;;;;;;;11.07;69.01;98323.74;238443;1191;139950;-56
2022/09/19 07:41:06;;;;;;;10.90;8.20;;;;;;;11.22;69.02;98325.83;238312;1192;139054;-55
2022/09/19 07:46:15;;;;;;;14.60;7.10;;;;;;;11.38;68.67;98336.09;238393;1192;139310;-56
2022/09/19 07:51:38;;;;;;;14.30;6.20;;;;;;;11.52;68.48;98338.73;238321;1192;139624;-53
2022/09/19 07:56:41;;;;;;;9.10;5.20;;;;;;;11.66;68.02;98341.81;238403;1191;139077;-56
2022/09/19 08:01:44;;;;;;;9.20;5.20;;;;;;;11.75;67.73;98337.02;238139;1192;140475;-55
2022/09/19 08:06:53;;;;;;;8.70;4.30;;;;;;;11.74;67.33;98339.58;238415;1192;140057;-57
2022/09/19 08:11:57;;;;;;;5.70;3.80;;;;;;;11.65;66.90;98353.56;238093;1192;138887;-55
2022/09/19 08:17:02;;;;;;;6.80;3.50;;;;;;;11.55;67.06;98360.57;238264;1191;140758;-55
2022/09/19 08:22:06;;;;;;;5.60;2.90;;;;;;;11.45;66.88;98360.08;238483;1191;139326;-57
2022/09/19 08:27:18;;;;;;;5.20;3.30;;;;;;;11.43;66.98;98354.21;238553;1192;141006;-54
2022/09/19 08:32:23;;;;;;;7.00;3.60;;;;;;;11.43;66.94;98351.34;237641;1192;139042;-55
2022/09/19 08:37:31;;;;;;;4.60;3.10;;;;;;;11.41;67.41;98354.00;238414;1190;139045;-56
2022/09/19 08:43:11;;;;;;;5.60;3.30;;;;;;;11.39;67.22;98356.30;238383;1192;138595;-54
2022/09/19 08:48:32;;;;;;;3.80;2.70;;;;;;;11.44;67.42;98358.38;237535;1191;139018;-55
2022/09/19 08:53:42;;;;;;;5.70;2.60;;;;;;;11.53;67.21;98361.43;237921;1192;139562;-56
2022/09/19 08:58:54;;;;;;;6.20;2.60;;;;;;;11.62;66.79;98354.31;238146;1192;139570;-56
2022/09/19 09:04:30;;;;;;;4.40;2.60;;;;;;;11.72;66.64;98353.39;237814;1192;138790;-54
2022/09/19 09:09:51;;;;;;;4.90;2.90;;;;;;;11.76;66.20;98342.27;238387;1192;138852;-55
2022/09/19 09:15:02;;;;;;;7.70;3.80;;;;;;;11.82;66.20;98344.63;238361;1191;139723;-56
2022/09/19 09:20:43;;;;;;;3.90;3.10;;;;;;;11.85;65.92;98341.23;238292;1192;237122;-55
2022/09/19 09:25:49;;;;;;;6.50;3.30;;;;;;;11.96;65.62;98338.37;238310;1192;138996;-55
2022/09/19 09:31:25;;;;;;;3.80;3.00;;;;;;;12.07;65.19;98336.45;238139;1192;138776;-57
2022/09/19 09:36:39;;;;;;;6.30;3.20;;;;;;;12.19;65.26;98335.14;238313;1192;139026;-57
2022/09/19 09:41:50;;;;;;;6.80;3.30;;;;;;;12.33;65.15;98327.63;238270;1191;139157;-58
2022/09/19 09:47:21;;;;;;;4.00;2.40;;;;;;;12.45;65.01;98330.17;238042;1192;138796;-57
2022/09/19 09:52:52;;;;;;;3.80;1.60;;;;;;;12.50;64.08;98335.88;238268;1192;138395;-57
2022/09/19 09:58:11;;;;;;;4.40;1.90;;;;;;;12.42;63.58;98341.49;238369;1191;139335;-56
2022/09/19 10:03:35;;;;;;;5.50;2.30;;;;;;;12.35;63.34;98349.86;238279;1192;138695;-58
2022/09/19 10:09:06;;;;;;;6.60;2.50;;;;;;;12.33;63.34;98358.77;238299;1192;139255;-58
2022/09/19 10:14:22;;;;;;;4.10;2.10;;;;;;;12.30;63.52;98366.95;238387;1191;141930;-57
2022/09/19 10:19:30;;;;;;;3.10;1.10;;;;;;;12.26;63.61;98378.17;238543;1192;139192;-55
2022/09/19 10:24:53;;;;;;;4.50;2.10;;;;;;;12.24;63.36;98379.23;238594;1190;138277;-56
2022/09/19 10:30:19;;;;;;;1.40;0.80;;;;;;;12.28;63.42;98380.10;238552;1190;142058;-57
2022/09/19 10:35:31;;;;;;;3.70;1.10;;;;;;;12.34;63.20;98391.00;238534;1191;138992;-55
2022/09/19 10:40:34;;;;;;;2.00;0.90;;;;;;;12.39;62.95;98398.11;238621;1192;139283;-56
2022/09/19 10:45:46;;;;;;;6.10;1.30;;;;;;;12.35;62.78;98407.17;238801;1190;138028;-57
2022/09/19 10:50:49;;;;;;;1.80;1.00;;;;;;;12.17;62.89;98413.02;238229;1191;139143;-56
2022/09/19 10:55:59;;;;;;;;;;;;;;;12.01;63.20;98419.36;238661;1190;138651;-57
2022/09/19 11:01:19;;;;;;;2.40;1.00;;;;;;;11.87;63.63;98426.56;238751;1190;126838;-56
2022/09/19 11:06:22;;;;;;;2.00;1.20;;;;;;;11.90;64.58;98425.77;237656;1191;139357;-56
2022/09/19 11:11:37;;;;;;;3.70;1.10;;;;;;;12.03;65.03;98420.70;238374;1191;139240;-56
2022/09/19 11:17:02;;;;;;;79.20;43.40;;;;;;;12.19;65.29;98418.39;237295;1190;139008;-57
2022/09/19 11:22:31;;;;;;;3.60;1.50;;;;;;;12.41;64.72;98420.39;238175;1190;139091;-55
2022/09/19 11:28:01;;;;;;;1.00;0.70;;;;;;;12.67;62.47;98424.34;238413;1191;139295;-56
2022/09/19 11:33:35;;;;;;;0.70;0.60;;;;;;;12.69;57.22;98427.17;238379;1192;139624;-56
2022/09/19 11:39:58;;;;;;;0.90;0.60;;;;;;;12.75;56.76;98417.99;238211;1192;139515;-55
2022/09/19 11:45:17;;;;;;;1.70;0.70;;;;;;;12.88;57.13;98406.25;238082;1192;138875;-56
2022/09/19 11:50:46;;;;;;;1.10;0.80;;;;;;;13.09;55.80;98409.36;238230;1191;139119;-54
2022/09/19 11:55:54;;;;;;;4.70;1.10;;;;;;;13.43;55.91;98404.20;238106;1192;138817;-56
2022/09/19 12:01:00;;;;;;;7.40;1.20;;;;;;;13.66;57.51;98394.63;238068;1192;139118;-55
2022/09/19 12:08:21;;;;;;;4.70;1.30;;;;;;;13.91;57.15;98398.52;233241;1208;636874;-57
2022/09/19 12:13:29;;;;;;;3.70;1.60;;;;;;;13.69;57.23;98400.40;237099;1196;137744;-58
2022/09/19 12:18:55;;;;;;;3.70;1.30;;;;;;;13.52;58.08;98404.73;237066;1196;137942;-55
2022/09/19 12:29:39;;;;;;;2.90;1.60;;;;;;;12.90;60.69;98415.73;236955;1196;138123;-57
2022/09/19 12:34:51;;;;;;;2.90;1.40;;;;;;;12.75;62.10;98417.45;236771;1196;138850;-55
2022/09/19 12:40:03;;;;;;;2.90;1.60;;;;;;;12.68;61.84;98413.54;237275;1196;139025;-55
2022/09/19 12:45:21;;;;;;;3.30;1.70;;;;;;;12.92;61.47;98411.45;237199;1196;139832;-55
2022/09/19 12:50:35;;;;;;;3.30;1.70;;;;;;;13.48;59.95;98409.81;236851;1196;138474;-55
2022/09/19 12:56:00;;;;;;;5.50;2.90;;;;;;;13.92;57.98;98406.64;237030;1195;138490;-56
2022/09/19 13:01:25;;;;;;;68.80;47.50;;;;;;;14.38;56.19;98412.85;237231;1196;139283;-56
2022/09/19 13:06:36;;;;;;;3.60;2.50;;;;;;;14.75;55.47;98410.67;237000;1196;139776;-57
2022/09/19 13:11:57;;;;;;;1.80;1.30;;;;;;;15.06;52.96;98415.93;236691;1196;138738;-55
2022/09/19 13:28:35;;;;;;;3.30;2.00;;;;;;;13.61;58.96;98452.08;238300;1192;138352;-54
2022/09/19 13:33:44;;;;;;;3.10;1.70;;;;;;;13.25;62.10;98449.52;238389;1192;138488;-56
2022/09/19 13:38:51;;;;;;;4.90;1.70;;;;;;;13.22;63.10;98453.65;238038;1193;138612;-58
2022/09/19 13:44:14;;;;;;;3.40;1.40;;;;;;;13.77;62.98;98448.56;237990;1192;139011;-56
2022/09/19 13:49:30;;;;;;;3.90;1.70;;;;;;;13.95;61.21;98453.10;238104;1193;139219;-57
2022/09/19 13:54:44;;;;;;;3.70;1.80;;;;;;;14.06;61.34;98456.45;238190;1192;138966;-58
2022/09/19 13:59:51;;;;;;;5.70;2.30;;;;;;;14.03;60.90;98465.64;238022;1193;138853;-58
2022/09/19 14:05:05;;;;;;;2.50;1.70;;;;;;;13.80;59.95;98463.83;238206;1193;140847;-57
2022/09/19 14:10:11;;;;;;;2.50;1.60;;;;;;;13.57;61.39;98475.42;237907;1192;138459;-56
2022/09/19 14:15:40;;;;;;;2.90;1.70;;;;;;;13.25;60.10;98490.54;237895;1192;138563;-58
2022/09/19 14:20:48;;;;;;;2.40;1.80;;;;;;;13.03;61.87;98492.65;238088;1192;138536;-56
2022/09/19 14:26:19;;;;;;;2.80;1.60;;;;;;;12.93;63.44;98488.66;238097;1193;138644;-55
2022/09/19 14:31:44;;;;;;;2.50;1.50;;;;;;;12.82;62.88;98490.27;237845;1192;139122;-56
2022/09/19 14:37:11;;;;;;;2.70;2.00;;;;;;;12.75;62.94;98488.67;237995;1192;138196;-57
2022/09/19 14:42:33;;;;;;;2.10;1.90;;;;;;;12.69;63.07;98485.40;238192;1193;138368;-58
2022/09/19 14:47:44;;;;;;;3.30;1.70;;;;;;;12.62;63.50;98491.30;237916;1193;138305;-56
2022/09/19 14:53:07;;;;;;;2.40;1.80;;;;;;;12.62;63.65;98493.61;238072;1192;139608;-54
2022/09/19 14:58:33;;;;;;;2.40;1.70;;;;;;;12.69;62.73;98495.03;238195;1192;139797;-56
2022/09/19 15:03:47;;;;;;;4.30;2.00;;;;;;;12.76;61.00;98491.61;238329;1193;140587;-56
2022/09/19 15:08:50;;;;;;;2.40;1.80;;;;;;;12.77;61.48;98489.58;238077;1193;138687;-57
2022/09/19 15:13:55;;;;;;;3.80;2.10;;;;;;;12.71;61.39;98493.72;238097;1193;138996;-55
2022/09/19 15:18:59;;;;;;;2.90;2.10;;;;;;;12.65;62.34;98492.85;237859;1193;138862;-56
2022/09/19 15:24:08;;;;;;;3.90;2.00;;;;;;;12.50;63.05;98501.10;237879;1193;140722;-54
2022/09/19 15:29:36;;;;;;;4.10;3.00;;;;;;;12.37;63.05;98503.72;238088;1192;139945;-55
2022/09/19 15:34:41;;;;;;;4.00;2.00;;;;;;;12.20;63.08;98511.81;238164;1192;139530;-54
2022/09/19 15:39:44;;;;;;;3.60;2.30;;;;;;;12.12;63.77;98511.21;238089;1193;138496;-57
2022/09/19 15:44:48;;;;;;;3.60;2.20;;;;;;;12.04;63.41;98511.63;238322;1192;139130;-54
2022/09/19 15:49:57;;;;;;;5.60;2.40;;;;;;;12.02;63.85;98510.89;238056;1193;139157;-57
2022/09/19 15:55:02;;;;;;;6.20;2.70;;;;;;;12.07;63.60;98512.97;238107;1193;139387;-57
2022/09/19 16:00:41;;;;;;;4.80;2.80;;;;;;;12.09;63.17;98516.41;238149;1192;138468;-55
2022/09/19 16:05:45;;;;;;;3.70;2.70;;;;;;;12.07;63.23;98524.34;238404;1192;140020;-56
2022/09/19 16:10:52;;;;;;;4.60;2.70;;;;;;;12.05;63.67;98528.95;238357;1192;138374;-56
2022/09/19 16:15:58;;;;;;;4.80;2.90;;;;;;;12.00;63.94;98530.05;238060;1192;138248;-57
2022/09/19 16:21:13;;;;;;;5.60;3.20;;;;;;;11.93;64.66;98534.89;238081;1192;138360;-56
2022/09/19 16:26:17;;;;;;;5.20;2.70;;;;;;;11.83;65.47;98541.28;238359;1192;139738;-55
2022/09/19 16:31:35;;;;;;;6.10;3.00;;;;;;;11.80;66.14;98548.06;238226;1191;138381;-54
2022/09/19 16:36:49;;;;;;;8.30;3.40;;;;;;;11.75;66.76;98552.05;238022;1192;138994;-54
2022/09/19 16:41:52;;;;;;;9.40;3.20;;;;;;;11.74;67.38;98558.13;238189;1192;139292;-55
2022/09/19 16:47:00;;;;;;;7.40;3.30;;;;;;;11.78;67.51;98563.14;238121;1192;139198;-55
2022/09/19 16:52:04;;;;;;;7.70;3.60;;;;;;;11.79;67.86;98565.71;238195;1192;138561;-58
2022/09/19 16:57:10;;;;;;;8.60;3.30;;;;;;;11.80;68.10;98570.66;238233;1192;139654;-57
2022/09/19 17:02:23;;;;;;;5.90;3.70;;;;;;;11.81;68.06;98578.22;238251;1192;139091;-57
2022/09/19 17:07:26;;;;;;;6.80;3.50;;;;;;;11.78;68.56;98582.17;238212;1193;139077;-57
2022/09/19 17:12:29;;;;;;;7.70;3.70;;;;;;;11.77;68.58;98587.02;238141;1192;139008;-58
2022/09/19 17:17:33;;;;;;;9.40;3.90;;;;;;;11.71;68.96;98585.90;238010;1192;138812;-56
2022/09/19 17:22:36;;;;;;;7.10;3.80;;;;;;;11.71;69.11;98589.63;238188;1192;139331;-56
2022/09/19 17:27:39;;;;;;;8.10;3.80;;;;;;;11.76;68.77;98591.61;238374;1192;138931;-57
2022/09/19 17:32:47;;;;;;;7.90;4.00;;;;;;;11.80;69.14;98593.04;237710;1192;141527;-57
2022/09/19 17:37:50;;;;;;;7.20;4.50;;;;;;;11.75;68.99;98607.98;238344;1191;139703;-57
2022/09/19 17:42:54;;;;;;;7.20;4.80;;;;;;;11.73;69.65;98617.04;238109;1192;138434;-59
2022/09/19 17:47:59;;;;;;;7.20;4.60;;;;;;;11.70;70.09;98623.43;238092;1192;139009;-59
2022/09/19 17:53:02;;;;;;;10.30;4.80;;;;;;;11.65;70.21;98630.77;238154;1192;139081;-57
2022/09/19 17:58:08;;;;;;;6.50;4.50;;;;;;;11.65;70.12;98640.05;238554;1192;139439;-58
2022/09/19 18:03:19;;;;;;;9.00;4.20;;;;;;;11.67;69.54;98646.61;238154;1192;138942;-56
2022/09/19 18:08:27;;;;;;;11.60;5.90;;;;;;;11.64;69.40;98652.87;238027;1193;138668;-57
2022/09/19 18:13:35;;;;;;;6.60;4.00;;;;;;;11.58;69.88;98659.89;237745;1193;138868;-59
2022/09/19 18:18:40;;;;;;;5.40;3.50;;;;;;;11.53;69.88;98667.16;237828;1193;139677;-59
2022/09/19 18:23:45;;;;;;;5.10;4.30;;;;;;;11.44;70.20;98668.74;237901;1192;138762;-59
2022/09/19 18:28:58;;;;;;;6.70;4.60;;;;;;;11.35;70.56;98671.80;238215;1192;139067;-55
2022/09/19 18:34:01;;;;;;;6.70;4.60;;;;;;;11.30;70.73;98673.43;238318;1192;140057;-55
2022/09/19 18:39:09;;;;;;;6.20;4.20;;;;;;;11.28;71.36;98676.03;238298;1191;139164;-59
2022/09/19 18:44:12;;;;;;;5.70;4.50;;;;;;;11.26;71.90;98675.45;238134;1192;139775;-60
2022/09/19 18:49:15;;;;;;;7.90;4.90;;;;;;;11.30;72.06;98676.27;237637;1193;138580;-58
2022/09/19 18:54:19;;;;;;;7.40;4.90;;;;;;;11.28;72.05;98680.15;238438;1190;140139;-56
2022/09/19 18:59:23;;;;;;;9.30;5.90;;;;;;;11.25;72.68;98682.15;238622;1190;138932;-54
2022/09/19 19:04:26;;;;;;;7.90;5.30;;;;;;;11.18;72.96;98679.80;238812;1190;138964;-59
2022/09/19 19:09:29;;;;;;;9.50;5.20;;;;;;;11.13;73.13;98680.99;238324;1192;138041;-58
2022/09/19 19:14:32;;;;;;;7.30;5.60;;;;;;;11.11;73.83;98679.42;238281;1192;140024;-57
2022/09/19 19:19:36;;;;;;;9.50;5.90;;;;;;;11.12;73.77;98675.95;238476;1191;138872;-56
2022/09/19 19:24:39;;;;;;;8.10;5.80;;;;;;;11.14;73.77;98680.80;238548;1190;139305;-57
2022/09/19 19:29:42;;;;;;;9.70;5.90;;;;;;;11.15;73.78;98680.01;238340;1192;138997;-58
2022/09/19 19:34:45;;;;;;;9.30;6.40;;;;;;;11.10;73.53;98676.45;238184;1192;139340;-58
2022/09/19 19:39:49;;;;;;;8.60;6.10;;;;;;;11.02;73.50;98679.96;238797;1190;138682;-57
2022/09/19 19:44:52;;;;;;;8.10;5.70;;;;;;;10.99;74.48;98680.61;238453;1190;139734;-57
2022/09/19 19:49:55;;;;;;;9.10;6.20;;;;;;;11.01;74.56;98680.99;238445;1191;139295;-57
2022/09/19 19:54:57;;;;;;;9.70;5.80;;;;;;;11.05;73.96;98678.02;238715;1190;138880;-57
2022/09/19 20:00:01;;;;;;;7.80;5.90;;;;;;;10.98;74.23;98675.36;238569;1190;224583;-57
2022/09/19 20:05:14;;;;;;;9.00;5.50;;;;;;;10.90;74.29;98675.66;238565;1190;139398;-57
2022/09/19 20:10:16;;;;;;;9.90;6.10;;;;;;;10.82;74.78;98674.31;238743;1190;139735;-57
2022/09/19 20:15:22;;;;;;;8.80;5.40;;;;;;;10.79;75.32;98676.80;238610;1190;139377;-55
2022/09/19 20:20:27;;;;;;;6.90;4.90;;;;;;;10.82;75.48;98670.73;238659;1190;139297;-57
2022/09/19 20:25:30;;;;;;;9.70;5.90;;;;;;;10.82;75.26;98674.62;238453;1190;139089;-59
2022/09/19 20:30:32;;;;;;;9.20;5.50;;;;;;;10.81;75.42;98667.80;238697;1190;139438;-54
2022/09/19 20:35:39;;;;;;;9.70;5.40;;;;;;;10.75;75.37;98664.69;238571;1192;139146;-56
2022/09/19 20:40:41;;;;;;;8.20;5.60;;;;;;;10.63;76.08;98666.34;238499;1190;138458;-57
2022/09/19 20:45:53;;;;;;;9.00;5.70;;;;;;;10.62;76.28;98667.50;238714;1190;139313;-57
2022/09/19 20:50:58;;;;;;;9.90;6.20;;;;;;;10.67;76.19;98665.05;238626;1190;139527;-56
2022/09/19 20:56:03;;;;;;;7.90;5.40;;;;;;;10.67;76.26;98662.41;238318;1190;139061;-57
2022/09/19 21:01:10;;;;;;;8.50;6.00;;;;;;;10.62;76.59;98666.26;238651;1191;139391;-55
2022/09/19 21:06:14;;;;;;;8.90;6.30;;;;;;;10.59;76.78;98665.38;238679;1190;138932;-57
2022/09/19 21:11:17;;;;;;;8.30;5.70;;;;;;;10.55;76.71;98669.22;238451;1190;138581;-57
2022/09/19 21:16:54;;;;;;;6.90;5.30;;;;;;;10.58;77.01;98672.20;223336;1247;636116;-57
2022/09/19 21:21:58;;;;;;;8.30;5.80;;;;;;;10.61;76.75;98673.06;226743;1240;139230;-58
2022/09/19 21:27:01;;;;;;;9.00;6.00;;;;;;;10.64;77.00;98674.41;226264;1237;138063;-60
2022/09/19 21:32:04;;;;;;;8.80;6.50;;;;;;;10.66;76.82;98677.00;224971;1245;139338;-57
2022/09/19 21:37:07;;;;;;;7.70;5.90;;;;;;;10.66;76.72;98676.67;225251;1248;138675;-58
2022/09/19 21:42:10;;;;;;;8.90;5.90;;;;;;;10.68;77.19;98679.15;226465;1241;139293;-58
2022/09/19 21:47:13;;;;;;;8.30;5.90;;;;;;;10.71;77.32;98679.00;225373;1247;139082;-57
2022/09/19 21:52:16;;;;;;;9.10;6.30;;;;;;;10.72;77.44;98683.36;225578;1241;138488;-58
2022/09/19 21:57:18;;;;;;;8.80;6.80;;;;;;;10.69;77.92;98688.36;225174;1246;138174;-56
2022/09/19 22:02:21;;;;;;;9.40;6.80;;;;;;;10.65;77.79;98685.02;225064;1240;138264;-58
2022/09/19 22:07:24;;;;;;;9.90;6.50;;;;;;;10.69;78.15;98684.60;224846;1239;139139;-56
2022/09/19 22:12:28;;;;;;;9.40;6.50;;;;;;;10.74;77.99;98683.20;225259;1239;141347;-57
2022/09/19 22:17:31;;;;;;;8.00;6.00;;;;;;;10.80;77.82;98684.20;225296;1248;139635;-57
2022/09/19 22:22:33;;;;;;;9.20;7.20;;;;;;;10.83;77.95;98683.82;225640;1241;138295;-57
2022/09/19 22:27:36;;;;;;;10.20;7.80;;;;;;;10.85;77.85;98688.13;225235;1246;138784;-55
2022/09/19 22:32:39;;;;;;;10.70;7.50;;;;;;;10.89;77.82;98688.38;226127;1240;138926;-58
2022/09/19 22:37:42;;;;;;;9.10;7.30;;;;;;;10.90;77.92;98679.23;225383;1248;139417;-57
2022/09/19 22:42:45;;;;;;;10.40;8.40;;;;;;;10.93;78.16;98679.57;225248;1244;139743;-55
2022/09/19 22:47:48;;;;;;;11.30;9.40;;;;;;;10.98;77.80;98679.58;225322;1247;141077;-57
2022/09/19 22:52:51;;;;;;;12.60;9.00;;;;;;;10.98;78.15;98678.70;225303;1240;139367;-58
2022/09/19 22:57:54;;;;;;;15.00;10.40;;;;;;;10.95;78.51;98681.42;225093;1245;139462;-57
2022/09/19 23:02:57;;;;;;;12.90;10.10;;;;;;;10.90;78.44;98687.42;225070;1246;139001;-56
2022/09/19 23:08:00;;;;;;;13.70;10.60;;;;;;;10.93;78.47;98683.11;225059;1238;139995;-59
2022/09/19 23:18:24;;;;;;;15.70;11.30;;;;;;;11.04;78.60;98689.66;225014;1241;138861;-57
2022/09/19 23:23:27;;;;;;;15.20;12.00;;;;;;;11.04;78.89;98693.55;225009;1248;139852;-58
2022/09/19 23:28:30;;;;;;;14.50;11.80;;;;;;;11.04;78.49;98696.55;225619;1246;139144;-57
2022/09/19 23:33:34;;;;;;;16.80;12.30;;;;;;;11.05;78.44;98703.60;224943;1240;139795;-57
2022/09/19 23:38:37;;;;;;;16.60;12.40;;;;;;;11.10;78.80;98708.92;224860;1240;140018;-56
2022/09/19 23:43:40;;;;;;;14.90;12.80;;;;;;;11.17;78.82;98708.48;224847;1249;138669;-57
2022/09/19 23:48:43;;;;;;;19.00;14.10;;;;;;;11.18;78.51;98711.92;224974;1241;139152;-56
2022/09/19 23:53:49;;;;;;;20.50;14.40;;;;;;;11.18;78.66;98715.13;225250;1247;141266;-57
2022/09/19 23:58:52;;;;;;;;;;;;;;;11.16;78.44;98718.45;224985;1240;139620;-58
